MDPP/POP METAR and TAF weather

Enter ICAO airport designator
Station Type Date Time Source
MDPP METAR 2021/04/17 01:00 UTC NOAA

MDPP 170100Z 16005KT 9999 FEW018 SCT300 24/23 Q1014


Station Type Date Time Source
MDPP Decoded METAR 2021/04/17 01:00 UTC NOAA

Puerto Plata International, Dominican Republic (MDPP) 19-45N 070-33W
Apr 16, 2021 - 09:00 PM EDT / 2021.04.17 0100 UTC
Wind: from the SSE (160 degrees) at 6 MPH (5 KT):0
Visibility: greater than 7 mile(s):0
Sky conditions: partly cloudy
Temperature: 75 F (24 C)
Dew Point: 73 F (23 C)
Relative Humidity: 94%
Pressure (altimeter): 29.94 in. Hg (1014 hPa)
ob: MDPP 170100Z 16005KT 9999 FEW018 SCT300 24/23 Q1014
cycle: 1

Station Type Date Time Source
MDPP TAF 2021/04/16 12:05 UTC NOAA

TAF MDPP 161000Z 1612/1712 00000KT 9999 FEW016
BECMG 1613/1615 04510KT

Example: see airport list